If you wish to contribute or participate in the discussions about articles you are invited to join SKYbrary as a registered user

 Actions

Naples

From SKYbrary Wiki

LIRN
Airport
ICAO: LIRN – IATA: NAP
Summary
Name Naples
Region Europe
Territory Italy IT.gif
Location Capodichino, Campania
Serving Naples
Elevation 89.611 m
294 ft
294 ft89.611 m
Coordinates 40° 53' 7.43" N, 14° 17' 19.09" E
Runways
Designator Length Width Surface ROPS
6/24 2628 m8,622.047 ft
45 m147.638 ft
ASP yes/yes


METAR
Observation LIRN 220820Z 02004KT 330V080 CAVOK 22/14 Q1021 NOSIG
Station Napoli / Capodichino
Date/Time 22 October 2019 08:20:00
Wind direction 20°
Wind speed 04 kts
Lowest cloud amount clouds and visibility OK
Temperature 22°C
Dew point 14°C
Humidity 60%
QNH 1021 hPa
Weather condition n/a

CFIT
Tag(s) Runway Visual Perspective

Naples Airport is the airport serving Naples, Italy. It is located 3.2 nm5,926.4 m
5.926 km
19,443.57 ft
north-northeast of the city in the Capodichino district of Naples.

Climatology

Dry-summer subtropical ”Mediterranean" climate (Köppen climate classification Csa) - characterized by hot, dry summers and mild winters. During the summer, subtropical high pressure cells dominate, making rainfall unlikely except for the occasional thunderstorm. In the winter, periodic storms bring rain (snow at higher elevations).

Maps

Terrain

Loading map...

Airport Layout

Loading map...


Accidents & Serious Incidents at or in vicinity of LIRN

None on SKYbrary